Terminal Aerodrome Forecast
Issued by NWS Cleveland, OH

Home | Current Version | Previous Version | Text Only | Print | Product List | Glossary On
Versions: 1 2 3 4 5 6 7 8 9 10 11 12 13 14 15 16 17 18 19 20
000
FTUS41 KCLE 010500
TAFTOL
TAF
KTOL 010539Z 0106/0206 00000KT P6SM SCT110
     FM010900 00000KT 5SM BR SKC
     FM011300 24006KT P6SM SCT050 SCT250
     FM020000 VRB03KT P6SM BKN050 BKN250=

USA.gov is the U.S. government's official web portal to all federal, state and local government web resources and services.